sensor_id;sensor_type;location;lat;lon;timestamp;P1;durP1;ratioP1;P2;durP2;ratioP2
38557;SDS011;24333;42.626;23.308;2022-11-21T00:08:08;10.88;;;4.10;;
38557;SDS011;24333;42.626;23.308;2022-11-21T00:10:37;8.45;;;3.85;;
38557;SDS011;24333;42.626;23.308;2022-11-21T00:13:04;7.65;;;3.83;;
38557;SDS011;24333;42.626;23.308;2022-11-21T00:15:31;1.60;;;0.90;;
38557;SDS011;24333;42.626;23.308;2022-11-21T00:51:35;4.68;;;1.00;;
38557;SDS011;24333;42.626;23.308;2022-11-21T00:54:00;1.98;;;0.50;;
38557;SDS011;24333;42.626;23.308;2022-11-21T00:56:26;2.45;;;0.80;;
38557;SDS011;24333;42.626;23.308;2022-11-21T00:58:51;2.95;;;0.70;;
38557;SDS011;24333;42.626;23.308;2022-11-21T01:01:16;4.57;;;0.77;;
38557;SDS011;24333;42.626;23.308;2022-11-21T01:03:42;0.75;;;0.43;;
38557;SDS011;24333;42.626;23.308;2022-11-21T01:09:24;4.70;;;0.57;;
38557;SDS011;24333;42.626;23.308;2022-11-21T01:17:59;4.38;;;1.00;;
38557;SDS011;24333;42.626;23.308;2022-11-21T01:20:30;3.55;;;0.93;;
38557;SDS011;24333;42.626;23.308;2022-11-21T01:22:56;3.80;;;0.82;;
38557;SDS011;24333;42.626;23.308;2022-11-21T03:04:12;2.08;;;0.70;;
38557;SDS011;24333;42.626;23.308;2022-11-21T03:06:38;2.22;;;0.63;;
38557;SDS011;24333;42.626;23.308;2022-11-21T03:09:04;1.73;;;0.75;;
38557;SDS011;24333;42.626;23.308;2022-11-21T03:55:55;3.50;;;0.73;;
38557;SDS011;24333;42.626;23.308;2022-11-21T04:18:24;4.75;;;0.82;;
38557;SDS011;24333;42.626;23.308;2022-11-21T05:06:10;1.65;;;1.00;;
38557;SDS011;24333;42.626;23.308;2022-11-21T05:08:52;1.42;;;0.80;;
38557;SDS011;24333;42.626;23.308;2022-11-21T05:11:20;3.22;;;0.88;;
38557;SDS011;24333;42.626;23.308;2022-11-21T05:14:25;3.58;;;0.93;;
38557;SDS011;24333;42.626;23.308;2022-11-21T05:17:15;2.53;;;0.68;;
38557;SDS011;24333;42.626;23.308;2022-11-21T05:19:43;1.77;;;0.55;;
38557;SDS011;24333;42.626;23.308;2022-11-21T05:22:08;4.45;;;0.70;;
38557;SDS011;24333;42.626;23.308;2022-11-21T05:27:10;8.25;;;1.17;;
38557;SDS011;24333;42.626;23.308;2022-11-21T05:29:39;1.35;;;0.75;;
38557;SDS011;24333;42.626;23.308;2022-11-21T05:32:25;6.72;;;1.13;;
38557;SDS011;24333;42.626;23.308;2022-11-21T05:34:52;1.63;;;0.90;;
38557;SDS011;24333;42.626;23.308;2022-11-21T05:37:17;2.53;;;0.80;;
38557;SDS011;24333;42.626;23.308;2022-11-21T05:39:46;2.40;;;0.50;;
38557;SDS011;24333;42.626;23.308;2022-11-21T05:42:11;5.07;;;1.90;;
38557;SDS011;24333;42.626;23.308;2022-11-21T05:44:37;6.57;;;0.80;;
38557;SDS011;24333;42.626;23.308;2022-11-21T05:47:21;2.22;;;0.95;;
38557;SDS011;24333;42.626;23.308;2022-11-21T05:49:47;1.33;;;0.70;;
38557;SDS011;24333;42.626;23.308;2022-11-21T05:52:12;1.00;;;0.60;;
38557;SDS011;24333;42.626;23.308;2022-11-21T05:54:38;1.83;;;0.85;;
38557;SDS011;24333;42.626;23.308;2022-11-21T05:57:03;1.70;;;0.88;;
38557;SDS011;24333;42.626;23.308;2022-11-21T05:59:29;3.03;;;0.77;;
38557;SDS011;24333;42.626;23.308;2022-11-21T09:02:29;11.52;;;6.88;;
38557;SDS011;24333;42.626;23.308;2022-11-21T09:04:55;5.47;;;3.33;;
38557;SDS011;24333;42.626;23.308;2022-11-21T09:07:20;4.30;;;1.88;;
38557;SDS011;24333;42.626;23.308;2022-11-21T09:09:46;13.20;;;5.15;;
38557;SDS011;24333;42.626;23.308;2022-11-21T09:12:11;11.00;;;5.38;;
38557;SDS011;24333;42.626;23.308;2022-11-21T09:14:37;17.58;;;8.23;;
38557;SDS011;24333;42.626;23.308;2022-11-21T09:20:32;5.50;;;2.75;;
38557;SDS011;24333;42.626;23.308;2022-11-21T09:23:06;7.15;;;3.38;;
38557;SDS011;24333;42.626;23.308;2022-11-21T09:28:21;8.02;;;3.00;;
38557;SDS011;24333;42.626;23.308;2022-11-21T09:30:46;3.33;;;1.77;;
38557;SDS011;24333;42.626;23.308;2022-11-21T09:33:13;13.25;;;3.00;;
38557;SDS011;24333;42.626;23.308;2022-11-21T09:35:42;13.82;;;3.55;;
38557;SDS011;24333;42.626;23.308;2022-11-21T09:38:08;6.45;;;3.10;;
38557;SDS011;24333;42.626;23.308;2022-11-21T10:01:38;22.73;;;8.77;;
38557;SDS011;24333;42.626;23.308;2022-11-21T10:20:11;18.35;;;8.10;;
38557;SDS011;24333;42.626;23.308;2022-11-21T10:59:28;5.90;;;3.22;;
38557;SDS011;24333;42.626;23.308;2022-11-21T11:01:57;4.53;;;2.38;;
38557;SDS011;24333;42.626;23.308;2022-11-21T11:04:45;3.85;;;2.15;;
38557;SDS011;24333;42.626;23.308;2022-11-21T11:07:24;2.58;;;2.10;;
38557;SDS011;24333;42.626;23.308;2022-11-21T11:10:23;4.35;;;2.72;;
38557;SDS011;24333;42.626;23.308;2022-11-21T11:12:49;4.45;;;2.60;;
38557;SDS011;24333;42.626;23.308;2022-11-21T14:00:40;23.60;;;7.75;;
38557;SDS011;24333;42.626;23.308;2022-11-21T14:06:38;14.15;;;5.47;;
38557;SDS011;24333;42.626;23.308;2022-11-21T14:17:25;12.68;;;5.38;;
38557;SDS011;24333;42.626;23.308;2022-11-21T14:20:25;10.82;;;4.90;;
38557;SDS011;24333;42.626;23.308;2022-11-21T14:22:55;16.70;;;6.57;;
38557;SDS011;24333;42.626;23.308;2022-11-21T14:25:41;17.95;;;6.45;;
38557;SDS011;24333;42.626;23.308;2022-11-21T14:39:18;12.68;;;6.45;;
38557;SDS011;24333;42.626;23.308;2022-11-21T14:41:53;17.23;;;6.60;;
38557;SDS011;24333;42.626;23.308;2022-11-21T14:44:25;11.40;;;4.72;;
38557;SDS011;24333;42.626;23.308;2022-11-21T14:50:19;27.55;;;10.73;;
38557;SDS011;24333;42.626;23.308;2022-11-21T14:52:58;18.63;;;7.10;;
38557;SDS011;24333;42.626;23.308;2022-11-21T14:55:27;17.73;;;7.65;;
38557;SDS011;24333;42.626;23.308;2022-11-21T14:57:54;16.40;;;7.28;;
38557;SDS011;24333;42.626;23.308;2022-11-21T15:00:24;15.00;;;6.32;;
38557;SDS011;24333;42.626;23.308;2022-11-21T15:40:25;14.18;;;6.00;;
38557;SDS011;24333;42.626;23.308;2022-11-21T15:42:50;28.52;;;14.70;;
38557;SDS011;24333;42.626;23.308;2022-11-21T15:47:41;13.15;;;4.90;;
38557;SDS011;24333;42.626;23.308;2022-11-21T15:50:07;15.20;;;7.35;;
38557;SDS011;24333;42.626;23.308;2022-11-21T16:04:52;11.10;;;5.07;;
38557;SDS011;24333;42.626;23.308;2022-11-21T16:28:40;16.38;;;6.45;;
38557;SDS011;24333;42.626;23.308;2022-11-21T16:31:06;16.42;;;7.03;;
38557;SDS011;24333;42.626;23.308;2022-11-21T16:33:32;21.17;;;8.77;;
38557;SDS011;24333;42.626;23.308;2022-11-21T16:35:58;15.35;;;6.50;;
38557;SDS011;24333;42.626;23.308;2022-11-21T16:38:27;14.60;;;6.50;;
38557;SDS011;24333;42.626;23.308;2022-11-21T16:43:54;15.93;;;6.78;;
38557;SDS011;24333;42.626;23.308;2022-11-21T16:46:43;17.30;;;7.05;;
38557;SDS011;24333;42.626;23.308;2022-11-21T16:49:18;19.20;;;6.82;;
38557;SDS011;24333;42.626;23.308;2022-11-21T16:57:41;14.90;;;5.93;;
38557;SDS011;24333;42.626;23.308;2022-11-21T17:00:08;17.08;;;6.43;;
38557;SDS011;24333;42.626;23.308;2022-11-21T17:02:36;13.80;;;5.35;;
38557;SDS011;24333;42.626;23.308;2022-11-21T17:05:01;15.65;;;5.90;;
38557;SDS011;24333;42.626;23.308;2022-11-21T17:07:27;14.00;;;6.32;;
38557;SDS011;24333;42.626;23.308;2022-11-21T17:09:52;16.88;;;6.60;;
38557;SDS011;24333;42.626;23.308;2022-11-21T17:22:58;12.82;;;5.68;;
38557;SDS011;24333;42.626;23.308;2022-11-21T17:25:23;14.60;;;5.97;;
38557;SDS011;24333;42.626;23.308;2022-11-21T17:27:49;15.05;;;5.70;;
38557;SDS011;24333;42.626;23.308;2022-11-21T17:30:14;12.50;;;5.22;;
38557;SDS011;24333;42.626;23.308;2022-11-21T17:32:39;16.48;;;6.20;;
38557;SDS011;24333;42.626;23.308;2022-11-21T17:35:05;19.05;;;6.82;;
38557;SDS011;24333;42.626;23.308;2022-11-21T17:37:31;14.65;;;6.28;;
38557;SDS011;24333;42.626;23.308;2022-11-21T17:39:56;14.25;;;5.60;;
38557;SDS011;24333;42.626;23.308;2022-11-21T17:42:33;12.27;;;6.47;;
38557;SDS011;24333;42.626;23.308;2022-11-21T18:17:05;16.13;;;5.93;;
38557;SDS011;24333;42.626;23.308;2022-11-21T18:19:30;13.18;;;6.15;;
38557;SDS011;24333;42.626;23.308;2022-11-21T18:21:56;22.20;;;8.35;;
38557;SDS011;24333;42.626;23.308;2022-11-21T18:24:21;17.55;;;7.13;;
38557;SDS011;24333;42.626;23.308;2022-11-21T18:26:47;16.55;;;5.90;;
38557;SDS011;24333;42.626;23.308;2022-11-21T18:29:12;11.45;;;5.18;;
38557;SDS011;24333;42.626;23.308;2022-11-21T18:31:38;8.48;;;3.97;;
38557;SDS011;24333;42.626;23.308;2022-11-21T18:34:04;8.27;;;3.53;;
38557;SDS011;24333;42.626;23.308;2022-11-21T18:36:31;5.40;;;2.92;;
38557;SDS011;24333;42.626;23.308;2022-11-21T18:38:57;8.98;;;4.00;;
38557;SDS011;24333;42.626;23.308;2022-11-21T18:41:25;6.47;;;3.00;;
38557;SDS011;24333;42.626;23.308;2022-11-21T18:44:02;4.97;;;2.80;;
38557;SDS011;24333;42.626;23.308;2022-11-21T18:46:30;6.43;;;3.45;;
38557;SDS011;24333;42.626;23.308;2022-11-21T18:49:13;5.93;;;2.67;;
38557;SDS011;24333;42.626;23.308;2022-11-21T18:51:40;5.85;;;2.83;;
38557;SDS011;24333;42.626;23.308;2022-11-21T18:59:30;4.05;;;2.55;;
38557;SDS011;24333;42.626;23.308;2022-11-21T19:01:56;6.32;;;3.30;;
38557;SDS011;24333;42.626;23.308;2022-11-21T19:04:22;7.45;;;3.72;;
38557;SDS011;24333;42.626;23.308;2022-11-21T19:06:48;8.57;;;3.75;;
38557;SDS011;24333;42.626;23.308;2022-11-21T19:09:14;8.38;;;3.80;;
38557;SDS011;24333;42.626;23.308;2022-11-21T19:11:39;12.77;;;5.07;;
38557;SDS011;24333;42.626;23.308;2022-11-21T19:14:05;10.52;;;4.80;;
38557;SDS011;24333;42.626;23.308;2022-11-21T19:16:30;11.07;;;4.85;;
38557;SDS011;24333;42.626;23.308;2022-11-21T20:09:09;7.32;;;3.25;;
38557;SDS011;24333;42.626;23.308;2022-11-21T20:11:45;9.93;;;4.05;;
38557;SDS011;24333;42.626;23.308;2022-11-21T20:14:25;11.82;;;3.72;;
38557;SDS011;24333;42.626;23.308;2022-11-21T20:16:52;7.68;;;3.42;;
38557;SDS011;24333;42.626;23.308;2022-11-21T20:19:22;6.63;;;3.17;;
38557;SDS011;24333;42.626;23.308;2022-11-21T21:48:50;5.25;;;1.67;;
38557;SDS011;24333;42.626;23.308;2022-11-21T21:51:20;2.92;;;1.52;;
38557;SDS011;24333;42.626;23.308;2022-11-21T21:53:48;4.05;;;2.00;;
38557;SDS011;24333;42.626;23.308;2022-11-21T21:56:15;3.38;;;1.65;;
